createdAt,value
2018-10-09T00:02:17.938Z,98603.66
2018-10-09T00:04:47.226Z,98602.41
2018-10-09T00:07:16.440Z,98606.05
2018-10-09T00:09:45.706Z,98604.31
2018-10-09T00:12:15.050Z,98603.98
2018-10-09T00:14:45.909Z,98597.78
2018-10-09T00:17:15.150Z,98604.59
2018-10-09T00:19:44.377Z,98608.41
2018-10-09T00:22:13.733Z,98609.01
2018-10-09T00:24:43.093Z,98604.89
2018-10-09T00:27:12.348Z,98608.77
2018-10-09T00:29:41.715Z,98600.17
2018-10-09T00:32:10.958Z,98601.75
2018-10-09T00:34:40.358Z,98601.48
2018-10-09T00:37:09.755Z,98603.71
2018-10-09T00:39:38.986Z,98605.91
2018-10-09T00:42:07.809Z,98613.55
2018-10-09T00:44:36.994Z,98616.88
2018-10-09T00:47:06.262Z,98609.60
2018-10-09T00:49:35.735Z,98614.52
2018-10-09T00:52:04.906Z,98609.13
2018-10-09T00:54:34.087Z,98601.84
2018-10-09T00:57:03.356Z,98597.39
2018-10-09T00:59:32.535Z,98597.70
2018-10-09T01:02:01.681Z,98597.22
2018-10-09T01:04:30.976Z,98586.77
2018-10-09T01:06:59.866Z,98589.13
2018-10-09T01:09:29.029Z,98585.97
2018-10-09T01:11:58.205Z,98582.61
2018-10-09T01:14:27.365Z,98582.77
2018-10-09T01:16:56.507Z,98582.17
2018-10-09T01:19:25.774Z,98584.37
2018-10-09T01:21:54.913Z,98583.75
2018-10-09T01:24:24.061Z,98586.27
2018-10-09T01:26:53.194Z,98599.94
2018-10-09T01:29:22.330Z,98601.47
2018-10-09T01:31:51.494Z,98601.47
2018-10-09T01:34:20.772Z,98595.84
2018-10-09T01:36:49.929Z,98589.50
2018-10-09T01:39:19.227Z,98599.05
2018-10-09T01:41:48.365Z,98600.47
2018-10-09T01:44:17.983Z,98595.03
2018-10-09T01:46:47.205Z,98596.27
2018-10-09T01:49:16.481Z,98592.13
2018-10-09T01:51:45.797Z,98596.09
2018-10-09T01:54:15.007Z,98594.27
2018-10-09T01:56:44.406Z,98591.61
2018-10-09T01:59:13.665Z,98589.09
2018-10-09T02:01:43.282Z,98593.29
2018-10-09T02:04:18.293Z,98585.63
2018-10-09T02:06:47.539Z,98585.47
2018-10-09T02:09:16.781Z,98578.94
2018-10-09T02:11:45.962Z,98575.48
2018-10-09T02:14:15.453Z,98576.30
2018-10-09T02:16:44.623Z,98571.38
2018-10-09T02:19:15.330Z,98575.03
2018-10-09T02:21:46.594Z,98573.82
2018-10-09T02:24:16.098Z,98572.22
2018-10-09T02:26:44.870Z,98569.07
2018-10-09T02:29:14.058Z,98563.23
2018-10-09T02:31:43.327Z,98565.87
2018-10-09T02:34:12.485Z,98551.63
2018-10-09T02:36:41.629Z,98555.89
2018-10-09T02:39:12.042Z,98556.97
2018-10-09T02:41:41.194Z,98556.19
2018-10-09T02:44:10.838Z,98545.63
2018-10-09T02:46:40.006Z,98558.00
2018-10-09T02:49:09.209Z,98548.80
2018-10-09T02:51:38.350Z,98560.55
2018-10-09T02:54:07.771Z,98563.10
2018-10-09T02:56:37.457Z,98563.27
2018-10-09T02:59:06.949Z,98562.48
2018-10-09T03:01:36.106Z,98568.37
2018-10-09T03:04:05.397Z,98569.48
2018-10-09T03:06:34.801Z,98574.87
2018-10-09T03:09:05.286Z,98573.26
2018-10-09T03:11:34.495Z,98577.20
2018-10-09T03:14:03.962Z,98581.80
2018-10-09T03:16:33.115Z,98583.34
2018-10-09T03:19:02.626Z,98575.09
2018-10-09T03:21:31.845Z,98574.97
2018-10-09T03:24:01.371Z,98575.59
2018-10-09T03:26:30.573Z,98565.92
2018-10-09T03:28:59.689Z,98559.34
2018-10-09T03:31:28.871Z,98558.37
2018-10-09T03:33:58.093Z,98558.88
2018-10-09T03:36:27.199Z,98566.66
2018-10-09T03:38:56.353Z,98567.95
2018-10-09T03:41:25.900Z,98571.91
2018-10-09T03:43:55.241Z,98566.20
2018-10-09T03:46:24.398Z,98554.48
2018-10-09T03:48:53.538Z,98556.22
2018-10-09T03:51:23.038Z,98555.45
2018-10-09T03:53:52.173Z,98565.95
2018-10-09T03:56:21.495Z,98562.14
2018-10-09T03:58:50.605Z,98560.70
2018-10-09T04:01:23.830Z,98558.19
2018-10-09T04:03:52.982Z,98558.36
2018-10-09T04:06:22.123Z,98567.09
2018-10-09T04:08:51.481Z,98565.02
2018-10-09T04:11:20.877Z,98573.58
2018-10-09T04:13:50.197Z,98577.22
2018-10-09T04:16:20.125Z,98576.10
2018-10-09T04:18:49.993Z,98571.92
2018-10-09T04:21:20.794Z,98577.58
2018-10-09T04:23:50.397Z,98569.31
2018-10-09T04:26:19.759Z,98573.13
2018-10-09T04:28:49.077Z,98573.91
2018-10-09T04:31:18.202Z,98577.24
2018-10-09T04:33:47.333Z,98567.59
2018-10-09T04:36:16.510Z,98570.28
2018-10-09T04:38:45.685Z,98568.84
2018-10-09T04:41:14.848Z,98572.12
2018-10-09T04:43:44.578Z,98579.08
2018-10-09T04:46:13.709Z,98579.34
2018-10-09T04:48:42.841Z,98577.84
2018-10-09T04:51:12.037Z,98586.70
2018-10-09T04:53:41.302Z,98585.23
2018-10-09T04:56:10.426Z,98591.99
2018-10-09T04:58:39.559Z,98591.10
2018-10-09T05:01:08.690Z,98591.09
2018-10-09T05:03:38.091Z,98583.53
2018-10-09T05:06:07.519Z,98579.45
2018-10-09T05:08:37.029Z,98581.06
2018-10-09T05:11:06.357Z,98584.58
2018-10-09T05:13:35.720Z,98586.00
2018-10-09T05:16:08.065Z,98590.40
2018-10-09T05:18:37.511Z,98587.47
2018-10-09T05:21:06.894Z,98593.63
2018-10-09T05:23:37.517Z,98599.78
2018-10-09T05:26:07.061Z,98597.98
2018-10-09T05:28:36.980Z,98602.53
2018-10-09T05:31:06.108Z,98597.02
2018-10-09T05:33:35.254Z,98608.61
2018-10-09T05:36:05.013Z,98609.91
2018-10-09T05:38:34.121Z,98609.33
2018-10-09T05:41:03.287Z,98614.42
2018-10-09T05:43:32.386Z,98617.91
2018-10-09T05:46:01.490Z,98623.06
2018-10-09T05:48:32.255Z,98635.45
2018-10-09T05:51:02.050Z,98640.77
2018-10-09T05:53:31.055Z,98640.68
2018-10-09T05:56:00.249Z,98640.66
2018-10-09T05:58:29.401Z,98642.99
2018-10-09T06:00:58.516Z,98643.27
2018-10-09T06:03:27.930Z,98647.80
2018-10-09T06:05:57.151Z,98653.36
2018-10-09T06:08:26.345Z,98651.11
2018-10-09T06:10:55.714Z,98655.28
2018-10-09T06:13:25.638Z,98650.89
2018-10-09T06:15:54.634Z,98651.22
2018-10-09T06:18:24.644Z,98654.63
2018-10-09T06:20:54.045Z,98651.06
2018-10-09T06:23:22.925Z,98642.80
2018-10-09T06:25:52.146Z,98643.06
2018-10-09T06:28:21.312Z,98639.20
2018-10-09T06:30:50.458Z,98643.91
2018-10-09T06:33:19.562Z,98647.19
2018-10-09T06:35:48.758Z,98642.11
2018-10-09T06:38:17.889Z,98645.34
2018-10-09T06:40:47.264Z,98645.23
2018-10-09T06:43:16.301Z,98650.73
2018-10-09T06:45:45.427Z,98643.98
2018-10-09T06:48:14.533Z,98637.41
2018-10-09T06:50:43.614Z,98632.98
2018-10-09T06:53:12.990Z,98643.89
2018-10-09T06:55:41.790Z,98639.42
2018-10-09T06:58:11.231Z,98641.75
2018-10-09T07:00:39.997Z,98646.20
2018-10-09T07:03:09.363Z,98642.83
2018-10-09T07:05:38.433Z,98636.52
2018-10-09T07:08:07.654Z,98639.69
2018-10-09T07:10:36.833Z,98642.72
2018-10-09T07:13:06.890Z,98646.12
2018-10-09T07:15:36.213Z,98650.34
2018-10-09T07:18:13.242Z,98654.43
2018-10-09T07:20:42.387Z,98649.92
2018-10-09T07:23:11.501Z,98645.63
2018-10-09T07:25:40.626Z,98644.70
2018-10-09T07:28:09.794Z,98644.98
2018-10-09T07:30:38.893Z,98647.89
2018-10-09T07:33:08.013Z,98646.32
2018-10-09T07:35:37.738Z,98641.89
2018-10-09T07:38:07.014Z,98646.13
2018-10-09T07:40:36.121Z,98652.71
2018-10-09T07:43:05.299Z,98652.81
2018-10-09T07:45:34.406Z,98652.23
2018-10-09T07:48:03.534Z,98653.73
2018-10-09T07:50:32.898Z,98657.38
2018-10-09T07:53:02.181Z,98661.13
2018-10-09T07:55:31.662Z,98663.69
2018-10-09T07:58:01.159Z,98664.16
2018-10-09T08:00:30.357Z,98658.63
2018-10-09T08:02:59.640Z,98661.03
2018-10-09T08:05:28.369Z,98661.95
2018-10-09T08:07:57.673Z,98667.10
2018-10-09T08:10:27.673Z,98670.30
2018-10-09T08:12:56.907Z,98669.44
2018-10-09T08:15:26.075Z,98665.16
2018-10-09T08:17:55.278Z,98659.88
2018-10-09T08:20:24.483Z,98664.16
2018-10-09T08:22:53.703Z,98670.31
2018-10-09T08:25:22.762Z,98670.86
2018-10-09T08:27:52.074Z,98667.55
2018-10-09T08:30:21.970Z,98670.84
2018-10-09T08:32:51.354Z,98666.02
2018-10-09T08:35:20.489Z,98667.53
2018-10-09T08:37:50.734Z,98666.92
2018-10-09T08:40:19.947Z,98671.33
2018-10-09T08:42:49.053Z,98666.15
2018-10-09T08:45:18.183Z,98665.41
2018-10-09T08:47:47.534Z,98663.70
2018-10-09T08:50:16.713Z,98660.65
2018-10-09T08:52:45.893Z,98665.98
2018-10-09T08:55:15.058Z,98667.37
2018-10-09T08:57:44.662Z,98669.73
2018-10-09T09:00:13.785Z,98669.87
2018-10-09T09:02:42.955Z,98676.06
2018-10-09T09:05:12.082Z,98677.99
2018-10-09T09:07:41.338Z,98677.33
2018-10-09T09:10:10.489Z,98663.45
2018-10-09T09:12:39.625Z,98677.16
2018-10-09T09:15:09.504Z,98669.45
2018-10-09T09:17:39.209Z,98678.98
2018-10-09T09:20:08.339Z,98670.02
2018-10-09T09:22:37.438Z,98671.88
2018-10-09T09:25:06.669Z,98668.34
2018-10-09T09:27:35.850Z,98669.31
2018-10-09T09:30:05.414Z,98664.55
2018-10-09T09:32:34.571Z,98663.98
2018-10-09T09:35:03.702Z,98667.03
2018-10-09T09:37:32.878Z,98666.86
2018-10-09T09:40:02.042Z,98655.70
2018-10-09T09:42:31.207Z,98657.71
2018-10-09T09:45:00.547Z,98654.20
2018-10-09T09:47:29.649Z,98645.80
2018-10-09T09:49:59.022Z,98647.81
2018-10-09T09:52:28.173Z,98643.80
2018-10-09T09:54:57.317Z,98641.10
2018-10-09T09:57:26.994Z,98635.36
2018-10-09T09:59:56.365Z,98628.16
2018-10-09T10:02:25.626Z,98624.06
2018-10-09T10:04:55.231Z,98623.50
2018-10-09T10:07:24.665Z,98622.27
2018-10-09T10:09:54.274Z,98611.53
2018-10-09T10:12:23.390Z,98616.37
2018-10-09T10:14:53.246Z,98608.92
2018-10-09T10:17:22.412Z,98610.38
2018-10-09T10:19:51.525Z,98601.19
2018-10-09T10:22:21.354Z,98606.44
2018-10-09T10:24:50.570Z,98605.56
2018-10-09T10:27:19.697Z,98607.69
2018-10-09T10:29:49.381Z,98603.47
2018-10-09T10:32:18.563Z,98594.91
2018-10-09T10:34:47.691Z,98593.94
2018-10-09T10:37:17.000Z,98590.69
2018-10-09T10:39:46.191Z,98588.65
2018-10-09T10:42:15.408Z,98586.62
2018-10-09T10:44:45.064Z,98579.03
2018-10-09T10:47:14.255Z,98571.88
2018-10-09T10:49:43.387Z,98578.13
2018-10-09T10:52:12.450Z,98578.78
2018-10-09T10:54:42.178Z,98571.92
2018-10-09T10:57:11.462Z,98573.94
2018-10-09T10:59:41.114Z,98571.11
2018-10-09T11:02:10.621Z,98568.50
2018-10-09T11:04:40.606Z,98568.05
2018-10-09T11:07:10.509Z,98553.51
2018-10-09T11:09:40.282Z,98561.69
2018-10-09T11:12:11.982Z,98552.34
2018-10-09T11:14:41.941Z,98554.49
2018-10-09T11:17:11.833Z,98551.21
2018-10-09T11:19:44.624Z,98557.92
2018-10-09T11:22:13.497Z,98545.26
2018-10-09T11:24:43.397Z,98545.08
2018-10-09T11:27:13.547Z,98548.95
2018-10-09T11:29:42.441Z,98546.78
2018-10-09T11:32:11.971Z,98539.63
2018-10-09T11:34:42.778Z,98538.92
2018-10-09T11:37:12.625Z,98535.33
2018-10-09T11:39:41.966Z,98533.83
2018-10-09T11:42:11.102Z,98526.95
2018-10-09T11:44:40.399Z,98521.22
2018-10-09T11:47:09.954Z,98520.90
2018-10-09T11:49:39.898Z,98518.00
2018-10-09T11:52:09.639Z,98516.72
2018-10-09T11:54:39.317Z,98516.17
2018-10-09T11:57:08.453Z,98510.88
2018-10-09T11:59:37.734Z,98519.12
2018-10-09T12:02:06.923Z,98506.45
2018-10-09T12:04:36.541Z,98505.64
2018-10-09T12:07:05.678Z,98504.09
2018-10-09T12:09:34.986Z,98498.95
2018-10-09T12:12:04.104Z,98496.20
2018-10-09T12:14:33.295Z,98487.80
2018-10-09T12:17:01.991Z,98489.75
2018-10-09T12:19:31.125Z,98492.44
2018-10-09T12:22:00.866Z,98489.16
2018-10-09T12:24:30.909Z,98487.88
2018-10-09T12:27:00.382Z,98482.09
2018-10-09T12:29:29.450Z,98487.16
2018-10-09T12:31:58.566Z,98482.97
2018-10-09T12:34:27.714Z,98482.66
2018-10-09T12:36:58.478Z,98486.71
2018-10-09T12:39:28.258Z,98479.31
2018-10-09T12:41:56.933Z,98485.62
2018-10-09T12:44:26.741Z,98483.04
2018-10-09T12:46:55.833Z,98473.55
2018-10-09T12:49:24.935Z,98481.89
2018-10-09T12:51:54.038Z,98468.94
2018-10-09T12:54:23.121Z,98466.83
2018-10-09T12:56:52.250Z,98473.12
2018-10-09T12:59:21.390Z,98464.27
2018-10-09T13:01:50.504Z,98465.04
2018-10-09T13:04:19.599Z,98468.68
2018-10-09T13:06:48.752Z,98466.37
2018-10-09T13:09:18.147Z,98468.67
2018-10-09T13:11:47.225Z,98464.02
2018-10-09T13:14:23.051Z,98460.36
2018-10-09T13:16:52.805Z,98462.08
2018-10-09T13:19:21.986Z,98465.36
2018-10-09T13:21:51.253Z,98461.06
2018-10-09T13:24:20.853Z,98458.29
2018-10-09T13:26:50.047Z,98457.11
2018-10-09T13:29:19.391Z,98451.20
2018-10-09T13:31:49.850Z,98448.26
2018-10-09T13:34:19.646Z,98442.30
2018-10-09T13:36:49.353Z,98440.73
2018-10-09T13:39:18.562Z,98438.64
2018-10-09T13:41:47.671Z,98443.86
2018-10-09T13:44:16.835Z,98437.45
2018-10-09T13:49:14.319Z,98428.91
2018-10-09T13:51:43.462Z,98428.92
2018-10-09T13:54:12.690Z,98434.12
2018-10-09T13:56:42.768Z,98437.48
2018-10-09T13:59:11.893Z,98433.59
2018-10-09T14:01:41.021Z,98439.29
2018-10-09T14:04:10.168Z,98434.37
2018-10-09T14:06:39.642Z,98430.45
2018-10-09T14:09:10.877Z,98426.84
2018-10-09T14:11:40.227Z,98424.75
2018-10-09T14:14:09.751Z,98413.82
2018-10-09T14:16:40.217Z,98413.84
2018-10-09T14:19:10.074Z,98408.37
2018-10-09T14:21:39.206Z,98408.63
2018-10-09T14:24:08.337Z,98410.98
2018-10-09T14:26:38.107Z,98411.50
2018-10-09T14:29:07.205Z,98405.50
2018-10-09T14:31:36.325Z,98403.42
2018-10-09T14:34:05.918Z,98397.72
2018-10-09T14:36:35.824Z,98399.55
2018-10-09T14:39:10.091Z,98394.34
2018-10-09T14:41:39.218Z,98402.80
2018-10-09T14:44:08.895Z,98403.77
2018-10-09T14:46:38.382Z,98398.80
2018-10-09T14:49:07.916Z,98397.12
2018-10-09T14:51:37.432Z,98402.02
2018-10-09T14:54:07.355Z,98404.06
2018-10-09T14:56:36.882Z,98398.66
2018-10-09T14:59:06.551Z,98395.88
2018-10-09T15:01:35.878Z,98398.50
2018-10-09T15:04:07.055Z,98399.27
2018-10-09T15:06:36.543Z,98396.69
2018-10-09T15:09:09.975Z,98404.70
2018-10-09T15:11:39.354Z,98396.84
2018-10-09T15:14:08.590Z,98403.48
2018-10-09T15:16:37.995Z,98403.62
2018-10-09T15:19:08.081Z,98404.31
2018-10-09T15:21:37.150Z,98407.09
2018-10-09T15:24:06.958Z,98416.55
2018-10-09T15:26:36.717Z,98421.08
2018-10-09T15:29:06.661Z,98426.95
2018-10-09T15:31:35.845Z,98419.84
2018-10-09T15:34:05.598Z,98429.68
2018-10-09T15:36:35.421Z,98425.14
2018-10-09T15:39:09.976Z,98422.20
2018-10-09T15:41:39.512Z,98422.83
2018-10-09T15:44:09.369Z,98429.55
2018-10-09T15:46:38.696Z,98427.61
2018-10-09T15:49:08.521Z,98429.58
2018-10-09T15:51:38.602Z,98432.36
2018-10-09T15:54:07.724Z,98427.83
2018-10-09T15:56:37.027Z,98433.63
2018-10-09T15:59:06.729Z,98431.15
2018-10-09T16:01:35.938Z,98435.66
2018-10-09T16:04:05.105Z,98434.50
2018-10-09T16:06:34.447Z,98436.48
2018-10-09T16:09:05.873Z,98432.91
2018-10-09T16:11:39.279Z,98437.17
2018-10-09T16:14:09.194Z,98433.33
2018-10-09T16:16:38.750Z,98443.41
2018-10-09T16:19:11.069Z,98443.42
2018-10-09T16:21:40.562Z,98442.56
2018-10-09T16:24:10.819Z,98449.27
2018-10-09T16:26:40.205Z,98453.23
2018-10-09T16:29:09.402Z,98454.29
2018-10-09T16:31:38.550Z,98456.34
2018-10-09T16:34:07.675Z,98456.70
2018-10-09T16:36:38.155Z,98461.00
2018-10-09T16:39:10.742Z,98456.50
2018-10-09T16:41:40.217Z,98460.74
2018-10-09T16:44:10.095Z,98462.60
2018-10-09T16:46:39.242Z,98466.27
2018-10-09T16:49:08.450Z,98464.24
2018-10-09T16:51:37.607Z,98460.20
2018-10-09T16:54:07.061Z,98472.62
2018-10-09T16:56:36.790Z,98469.08
2018-10-09T16:59:05.939Z,98471.38
2018-10-09T17:01:35.622Z,98473.11
2018-10-09T17:04:05.261Z,98473.09
2018-10-09T17:06:35.185Z,98473.38
2018-10-09T17:09:08.315Z,98482.53
2018-10-09T17:11:37.987Z,98484.42
2018-10-09T17:14:06.961Z,98486.63
2018-10-09T17:16:36.290Z,98491.43
2018-10-09T17:19:04.932Z,98499.91
2018-10-09T17:21:34.138Z,98493.05
2018-10-09T17:24:03.949Z,98500.83
2018-10-09T17:26:33.577Z,98505.26
2018-10-09T17:29:02.597Z,98506.13
2018-10-09T17:31:31.722Z,98515.67
2018-10-09T17:34:02.530Z,98512.83
2018-10-09T17:36:37.309Z,98506.00
2018-10-09T17:39:10.259Z,98504.19
2018-10-09T17:41:39.993Z,98504.55
2018-10-09T17:44:09.330Z,98514.33
2018-10-09T17:46:39.252Z,98514.08
2018-10-09T17:49:08.485Z,98513.58
2018-10-09T17:51:37.871Z,98511.36
2018-10-09T17:54:07.030Z,98517.36
2018-10-09T17:56:36.586Z,98518.14
2018-10-09T17:59:05.703Z,98514.11
2018-10-09T18:01:36.718Z,98514.33
2018-10-09T18:04:05.847Z,98517.01
2018-10-09T18:06:35.451Z,98513.85
2018-10-09T18:09:08.256Z,98523.04
2018-10-09T18:11:37.468Z,98528.45
2018-10-09T18:14:06.782Z,98523.53
2018-10-09T18:16:35.902Z,98518.62
2018-10-09T18:19:04.746Z,98518.89
2018-10-09T18:21:34.745Z,98512.48
2018-10-09T18:24:04.491Z,98516.63
2018-10-09T18:26:33.590Z,98518.41
2018-10-09T18:29:02.772Z,98519.31
2018-10-09T18:31:32.098Z,98529.27
2018-10-09T18:34:02.067Z,98520.09
2018-10-09T18:36:31.175Z,98520.09
2018-10-09T18:39:01.059Z,98523.95
2018-10-09T18:41:30.284Z,98529.66
2018-10-09T18:43:59.344Z,98524.35
2018-10-09T18:46:28.420Z,98527.69
2018-10-09T18:48:57.606Z,98529.58
2018-10-09T18:51:26.832Z,98527.00
2018-10-09T18:53:55.908Z,98525.02
2018-10-09T18:56:27.708Z,98531.78
2018-10-09T18:58:57.113Z,98530.69
2018-10-09T19:01:26.422Z,98527.13
2018-10-09T19:03:55.566Z,98532.25
2018-10-09T19:06:24.718Z,98533.34
2018-10-09T19:08:53.900Z,98528.48
2018-10-09T19:11:27.239Z,98532.75
2018-10-09T19:13:57.238Z,98536.95
2018-10-09T19:16:26.713Z,98529.55
2018-10-09T19:18:55.857Z,98541.31
2018-10-09T19:21:24.565Z,98541.42
2018-10-09T19:23:53.802Z,98539.50
2018-10-09T19:26:22.962Z,98541.88
2018-10-09T19:28:52.058Z,98549.95
2018-10-09T19:31:21.165Z,98551.27
2018-10-09T19:33:50.265Z,98552.17
2018-10-09T19:36:19.413Z,98556.08
2018-10-09T19:38:48.571Z,98551.95
2018-10-09T19:41:17.752Z,98558.64
2018-10-09T19:43:46.910Z,98554.30
2018-10-09T19:46:16.047Z,98552.02
2018-10-09T19:48:45.154Z,98551.52
2018-10-09T19:51:14.340Z,98550.12
2018-10-09T19:53:43.714Z,98552.72
2018-10-09T19:56:12.870Z,98552.41
2018-10-09T19:58:41.965Z,98554.69
2018-10-09T20:01:11.096Z,98558.00
2018-10-09T20:03:39.890Z,98565.09
2018-10-09T20:06:09.246Z,98561.02
2018-10-09T20:08:38.431Z,98562.25
2018-10-09T20:11:09.632Z,98571.02
2018-10-09T20:13:38.775Z,98569.26
2018-10-09T20:16:08.844Z,98577.33
2018-10-09T20:18:38.126Z,98574.02
2018-10-09T20:21:08.353Z,98570.04
2018-10-09T20:23:37.730Z,98572.20
2018-10-09T20:26:06.730Z,98570.84
2018-10-09T20:28:36.033Z,98568.72
2018-10-09T20:31:05.192Z,98568.31
2018-10-09T20:33:34.345Z,98566.17
2018-10-09T20:36:04.007Z,98566.97
2018-10-09T20:38:33.370Z,98566.25
2018-10-09T20:41:03.189Z,98564.23
2018-10-09T20:43:32.464Z,98563.62
2018-10-09T20:46:01.706Z,98561.69
2018-10-09T20:48:31.857Z,98556.87
2018-10-09T20:51:00.901Z,98561.61
2018-10-09T20:53:30.003Z,98554.44
2018-10-09T20:55:59.122Z,98554.47
2018-10-09T20:58:28.295Z,98557.77
2018-10-09T21:00:57.438Z,98559.92
2018-10-09T21:03:27.353Z,98561.05
2018-10-09T21:05:56.793Z,98551.23
2018-10-09T21:08:25.960Z,98564.93
2018-10-09T21:10:55.157Z,98563.72
2018-10-09T21:13:24.870Z,98566.16
2018-10-09T21:15:54.022Z,98568.10
2018-10-09T21:18:23.675Z,98571.70
2018-10-09T21:20:53.115Z,98555.87
2018-10-09T21:23:22.453Z,98567.08
2018-10-09T21:25:51.252Z,98570.53
2018-10-09T21:28:21.425Z,98574.25
2018-10-09T21:30:50.570Z,98568.89
2018-10-09T21:33:19.749Z,98563.53
2018-10-09T21:35:48.958Z,98564.78
2018-10-09T21:38:18.090Z,98561.27
2018-10-09T21:40:47.193Z,98557.86
2018-10-09T21:43:16.905Z,98561.50
2018-10-09T21:45:46.162Z,98554.77
2018-10-09T21:48:15.618Z,98550.77
2018-10-09T21:50:44.649Z,98548.86
2018-10-09T21:53:13.758Z,98545.45
2018-10-09T21:55:42.865Z,98550.16
2018-10-09T21:58:11.986Z,98546.05
2018-10-09T22:00:46.298Z,98544.98
2018-10-09T22:03:15.425Z,98541.10
2018-10-09T22:05:44.526Z,98541.59
2018-10-09T22:08:13.658Z,98540.19
2018-10-09T22:10:42.782Z,98542.12
2018-10-09T22:13:11.912Z,98540.98
2018-10-09T22:15:41.102Z,98537.40
2018-10-09T22:18:10.250Z,98536.05
2018-10-09T22:20:39.368Z,98533.61
2018-10-09T22:23:08.534Z,98538.10
2018-10-09T22:25:37.798Z,98533.12
2018-10-09T22:28:07.398Z,98536.11
2018-10-09T22:30:36.134Z,98532.70
2018-10-09T22:33:05.287Z,98531.50
2018-10-09T22:35:34.582Z,98539.63
2018-10-09T22:38:03.754Z,98529.30
2018-10-09T22:40:32.922Z,98528.98
2018-10-09T22:43:03.802Z,98533.29
2018-10-09T22:45:34.326Z,98535.31
2018-10-09T22:48:03.430Z,98539.30
2018-10-09T22:50:32.557Z,98531.52
2018-10-09T22:53:01.682Z,98531.45
2018-10-09T22:55:31.534Z,98524.33
2018-10-09T22:58:00.645Z,98530.53
2018-10-09T23:00:29.738Z,98527.59
2018-10-09T23:02:58.846Z,98520.27
2018-10-09T23:05:29.670Z,98519.34
2018-10-09T23:07:59.602Z,98521.33
2018-10-09T23:10:28.926Z,98522.44
2018-10-09T23:12:58.425Z,98525.56
2018-10-09T23:15:28.593Z,98518.08
2018-10-09T23:17:58.325Z,98521.09
2018-10-09T23:20:27.418Z,98518.62
2018-10-09T23:22:56.531Z,98521.39
2018-10-09T23:25:25.767Z,98517.94
2018-10-09T23:27:54.958Z,98516.50
2018-10-09T23:30:24.217Z,98522.47
2018-10-09T23:32:53.434Z,98519.70
2018-10-09T23:35:22.658Z,98515.97
2018-10-09T23:37:51.991Z,98516.30
2018-10-09T23:40:21.161Z,98515.09
2018-10-09T23:42:50.926Z,98510.52
2018-10-09T23:45:22.498Z,98507.89
2018-10-09T23:47:55.747Z,98503.24
2018-10-09T23:50:25.551Z,98506.22
2018-10-09T23:52:54.633Z,98497.06
2018-10-09T23:55:23.749Z,98498.29
2018-10-09T23:57:52.860Z,98496.39
